Time;durP1;ratioP1;P1;durP2;ratioP2;P2;SDS_P1;SDS_P2;PMS_P1;PMS_P2;Temp;Humidity;BMP_temperature;BMP_pressure;BME280_temperature;BME280_humidity;BME280_pressure;Samples;Min_cycle;Max_cycle;Signal;HPM_P1;HPM_P2
2023/01/13 00:00:15;;;;;;;2.43;1.13;;;12.40;90.10;;;14.93;63.09;99970.47;5033879;28;20198;-56
2023/01/13 00:02:42;;;;;;;2.53;1.13;;;12.40;90.10;;;14.89;63.20;99960.28;5034391;28;20194;-54
2023/01/13 00:05:10;;;;;;;4.23;1.17;;;12.40;90.00;;;14.85;62.69;99947.72;5024221;28;20285;-57
2023/01/13 00:07:39;;;;;;;3.23;1.13;;;12.30;89.40;;;14.79;62.64;99944.09;5014747;28;20590;-57
2023/01/13 00:10:09;;;;;;;1.43;0.90;;;12.30;89.50;;;14.79;62.64;99943.28;5032942;28;20194;-55
2023/01/13 00:12:39;;;;;;;2.63;1.23;;;12.30;89.60;;;14.76;62.59;99941.88;5014612;28;20219;-56
2023/01/13 00:15:09;;;;;;;2.43;1.10;;;12.20;89.20;;;14.76;62.65;99931.28;5014402;28;20196;-55
2023/01/13 00:17:37;;;;;;;2.03;1.30;;;12.20;89.50;;;14.78;62.41;99926.59;5029328;28;20710;-57
2023/01/13 00:20:06;;;;;;;2.90;1.37;;;12.20;89.60;;;14.81;62.72;99931.44;5015765;28;20246;-57
2023/01/13 00:22:34;;;;;;;3.23;0.90;;;12.20;89.90;;;14.83;62.65;99945.25;5022020;28;20210;-57
2023/01/13 00:25:03;;;;;;;4.00;1.20;;;12.20;89.90;;;14.86;62.84;99944.84;5013879;28;20187;-55
2023/01/13 00:27:30;;;;;;;1.70;1.00;;;12.20;90.00;;;14.88;62.42;99931.38;5033306;28;20222;-55
2023/01/13 00:29:59;;;;;;;1.93;0.90;;;12.20;90.00;;;14.83;62.13;99937.31;5014587;28;20194;-55
2023/01/13 00:32:27;;;;;;;1.90;0.80;;;12.20;89.80;;;14.87;62.55;99937.69;5030748;28;20745;-56
2023/01/13 00:34:54;;;;;;;1.10;1.00;;;12.20;90.00;;;14.85;62.31;99948.53;5031640;28;20198;-55
2023/01/13 00:37:22;;;;;;;5.37;1.30;;;12.30;90.00;;;14.88;62.57;99942.75;5031507;28;20210;-54
2023/01/13 00:39:50;;;;;;;3.77;1.03;;;12.30;90.00;;;14.93;62.48;99945.56;5014317;28;20286;-54
2023/01/13 00:45:06;;;;;;;1.37;1.00;;;12.30;90.00;;;14.86;62.21;99950.13;5031622;28;20214;-54
2023/01/13 00:47:33;;;;;;;2.47;1.23;;;12.30;89.60;;;14.85;62.01;99948.53;5031737;28;20211;-54
2023/01/13 00:50:00;;;;;;;2.03;1.07;;;12.30;89.40;;;14.89;61.97;99949.69;5014790;28;20269;-53
2023/01/13 00:52:27;;;;;;;2.90;1.07;;;12.30;89.20;;;14.84;62.10;99956.69;5031463;28;20202;-55
2023/01/13 00:54:54;;;;;;;5.13;1.63;;;12.30;88.80;;;14.86;62.04;99960.72;5014089;28;20195;-53
2023/01/13 00:57:21;;;;;;;4.50;1.23;;;12.30;88.60;;;14.87;61.61;99956.25;5032640;28;20222;-55
2023/01/13 00:59:48;;;;;;;7.47;1.90;;;12.30;88.10;;;14.85;61.00;99947.72;5016675;28;20197;-52
2023/01/13 01:02:17;;;;;;;5.97;1.80;;;12.40;87.70;;;14.85;61.17;99959.13;5029473;28;20194;-53
2023/01/13 01:04:44;;;;;;;5.40;1.67;;;12.30;87.20;;;14.84;60.80;99957.50;5033272;28;20199;-55
2023/01/13 01:07:11;;;;;;;5.03;1.73;;;12.30;87.00;;;14.83;60.57;99958.50;5033171;28;20187;-56
2023/01/13 01:09:38;;;;;;;4.67;1.83;;;12.30;86.50;;;14.78;60.37;99961.03;5017996;28;20199;-53
2023/01/13 01:12:06;;;;;;;4.87;2.00;;;12.30;86.10;;;14.75;60.31;99964.13;5030559;28;20210;-53
2023/01/13 01:14:33;;;;;;;4.70;1.57;;;12.30;85.80;;;14.71;60.00;99973.53;5036866;28;20670;-57
2023/01/13 01:17:00;;;;;;;5.37;2.03;;;12.30;85.30;;;14.69;59.88;99972.94;5033101;28;20678;-54
2023/01/13 01:19:29;;;;;;;9.03;2.30;;;12.30;85.40;;;14.65;59.91;99977.06;5019819;28;20203;-56
2023/01/13 01:21:56;;;;;;;9.53;2.00;;;12.20;85.20;;;14.62;59.76;99966.91;5028646;28;20198;-54
2023/01/13 01:24:23;;;;;;;8.73;2.27;;;12.20;85.10;;;14.58;59.61;99978.16;5033554;28;20179;-58
2023/01/13 01:26:50;;;;;;;4.53;2.10;;;12.20;84.80;;;14.56;59.64;99986.34;5032782;28;20190;-56
2023/01/13 01:29:17;;;;;;;6.23;2.13;;;12.10;84.70;;;14.56;59.67;99981.03;5021075;28;20281;-54
2023/01/13 01:31:44;;;;;;;7.20;1.97;;;12.10;84.60;;;14.52;59.30;99985.16;5029535;28;20197;-56
2023/01/13 01:34:11;;;;;;;4.23;1.67;;;12.10;84.20;;;14.48;59.22;99993.72;5033438;28;20210;-56
2023/01/13 01:36:39;;;;;;;7.90;1.90;;;12.10;84.30;;;14.49;59.27;99990.06;5032694;28;20187;-56
2023/01/13 01:39:07;;;;;;;6.30;2.47;;;12.00;84.20;;;14.42;59.01;99987.47;5022713;28;20215;-56
2023/01/13 01:41:35;;;;;;;4.43;1.93;;;12.00;83.80;;;14.41;59.24;99988.50;5026965;28;20202;-56
2023/01/13 01:44:27;;;;;;;10.87;2.57;;;12.00;83.70;;;14.36;58.63;99985.69;5016623;28;20725;-56
2023/01/13 01:46:56;;;;;;;7.00;2.10;;;12.00;83.40;;;14.33;58.50;99980.84;5020513;28;20199;-56
2023/01/13 01:49:31;;;;;;;12.57;2.87;;;11.90;82.80;;;14.31;58.44;99977.59;5020532;28;20219;-56
2023/01/13 01:52:07;;;;;;;8.30;2.80;;;11.90;83.00;;;14.30;58.58;99978.63;5017936;28;20209;-55
2023/01/13 01:54:42;;;;;;;9.90;2.43;;;11.80;83.10;;;14.29;58.17;99978.81;5017424;28;20674;-56
2023/01/13 01:57:17;;;;;;;9.63;2.87;;;11.80;82.40;;;14.26;58.01;99977.41;5030748;28;20282;-53
2023/01/13 01:59:45;;;;;;;12.00;2.80;;;11.80;82.30;;;14.22;57.52;99977.03;5019146;28;20281;-54
2023/01/13 02:02:13;;;;;;;12.87;2.87;;;11.80;82.10;;;14.18;57.58;99972.38;5019594;28;20222;-55
2023/01/13 02:04:49;;;;;;;8.90;3.00;;;11.70;81.80;;;14.18;57.57;99977.69;5015073;28;20215;-58
2023/01/13 02:07:19;;;;;;;9.27;3.13;;;11.70;81.80;;;14.16;57.38;99979.75;5026610;28;20667;-52
2023/01/13 02:09:47;;;;;;;11.47;2.67;;;11.60;81.70;;;14.13;57.37;99980.16;5022566;28;20199;-57
2023/01/13 02:12:33;;;;;;;12.83;2.93;;;11.60;81.50;;;14.11;57.29;99972.47;5036052;28;20190;-56
2023/01/13 02:15:06;;;;;;;9.77;3.10;;;11.60;81.70;;;14.10;57.35;99980.59;5037685;28;20717;-56
2023/01/13 02:18:04;;;;;;;10.37;3.27;;;11.60;81.90;;;14.04;57.11;99986.75;5065979;28;20221;-56
2023/01/13 02:21:26;;;;;;;10.67;3.10;;;11.50;81.70;;;13.97;57.05;99991.28;5032206;28;20195;-54
2023/01/13 02:24:53;;;;;;;9.17;3.27;;;11.50;81.60;;;13.94;57.25;99991.72;5026891;28;20190;-57
2023/01/13 02:27:46;;;;;;;10.87;3.27;;;11.50;81.70;;;13.90;57.40;99996.63;5016741;28;20619;-56
2023/01/13 02:33:36;;;;;;;13.07;3.13;;;11.40;81.70;;;13.84;57.11;100007.25;5036011;28;20569;-55
2023/01/13 02:36:13;;;;;;;9.57;3.10;;;11.30;81.60;;;13.77;57.31;99996.72;5037582;28;20182;-55
2023/01/13 02:38:50;;;;;;;16.17;3.67;;;11.40;81.50;;;13.77;57.22;99995.88;5040875;28;20256;-55
2023/01/13 02:44:22;;;;;;;11.77;3.30;;;11.30;81.40;;;13.75;57.49;100013.81;5036003;28;20547;-56
2023/01/13 02:46:55;;;;;;;7.33;2.80;;;11.30;81.70;;;13.78;57.32;100016.03;5034025;28;20171;-55
2023/01/13 02:49:34;;;;;;;13.50;3.27;;;11.20;81.80;;;13.78;57.45;100008.09;5027789;28;20226;-56
2023/01/13 02:52:09;;;;;;;10.17;3.23;;;11.20;81.90;;;13.78;57.07;100010.75;5036128;28;20187;-56
2023/01/13 02:54:42;;;;;;;6.07;2.93;;;11.20;81.90;;;13.81;57.37;100018.25;5020514;28;20236;-57
2023/01/13 02:57:14;;;;;;;16.00;3.70;;;11.20;82.20;;;13.86;57.51;100021.09;5033269;28;20225;-56
2023/01/13 02:59:41;;;;;;;10.67;3.10;;;11.20;82.10;;;13.87;57.21;100017.41;5021679;28;20237;-56
2023/01/13 03:02:15;;;;;;;13.63;3.63;;;11.20;82.00;;;13.89;57.18;100018.81;5016101;28;20195;-56
2023/01/13 03:04:53;;;;;;;13.07;3.13;;;11.20;82.10;;;13.90;57.07;100016.97;5015698;28;20204;-57
2023/01/13 03:07:56;;;;;;;16.67;3.83;;;11.20;82.20;;;13.85;57.08;99998.28;5022752;28;20242;-57
2023/01/13 03:10:46;;;;;;;14.47;4.10;;;11.20;82.10;;;13.81;57.10;99997.91;5015772;28;20187;-54
2023/01/13 03:13:37;;;;;;;15.30;3.47;;;11.20;81.80;;;13.74;56.91;99991.06;5015557;28;20290;-56
2023/01/13 03:16:16;;;;;;;12.17;3.40;;;11.20;81.20;;;13.73;57.10;99998.16;5015550;28;20176;-54
2023/01/13 03:18:58;;;;;;;15.40;3.27;;;11.10;81.40;;;13.70;56.97;100011.00;5015752;28;20717;-55
2023/01/13 03:21:38;;;;;;;16.93;3.70;;;11.20;81.20;;;13.70;56.96;100011.00;5014164;28;20267;-53
2023/01/13 03:24:12;;;;;;;12.57;3.50;;;11.10;81.00;;;13.73;56.76;100011.41;5015604;28;20175;-54
2023/01/13 03:26:47;;;;;;;14.13;3.50;;;11.10;81.10;;;13.75;56.86;100004.06;5015444;28;20197;-56
2023/01/13 03:29:21;;;;;;;12.63;3.80;;;11.10;81.10;;;13.74;56.41;99996.34;5015661;28;20218;-54
2023/01/13 03:32:00;;;;;;;10.40;3.23;;;11.20;81.00;;;13.69;56.71;99998.81;5014433;28;20285;-56
2023/01/13 03:34:36;;;;;;;15.63;3.73;;;11.20;81.10;;;13.71;56.65;99983.53;5029683;28;20206;-56
2023/01/13 03:37:08;;;;;;;17.20;3.77;;;11.10;81.10;;;13.67;56.69;99987.63;5034340;28;20190;-54
2023/01/13 03:39:42;;;;;;;9.73;3.73;;;11.10;81.00;;;13.52;56.81;99983.44;5015477;28;20206;-54
2023/01/13 03:42:17;;;;;;;9.60;3.50;;;11.10;80.80;;;13.53;57.01;99974.47;5015364;28;20178;-56
2023/01/13 03:44:52;;;;;;;14.03;3.97;;;11.10;81.10;;;13.54;56.86;99970.81;5020334;28;20645;-54
2023/01/13 03:47:29;;;;;;;12.70;3.97;;;11.10;81.10;;;13.52;56.77;99972.88;5029316;28;20206;-55
2023/01/13 03:50:02;;;;;;;13.93;3.63;;;11.00;80.90;;;13.47;56.72;99970.06;5015675;28;20215;-56
2023/01/13 03:52:35;;;;;;;20.57;4.17;;;11.00;80.50;;;13.49;56.67;99977.75;5015454;28;20206;-55
2023/01/13 03:55:09;;;;;;;10.73;3.53;;;11.00;80.40;;;13.46;56.50;99984.28;5034181;28;20577;-55
2023/01/13 03:57:51;;;;;;;17.27;3.73;;;11.00;80.40;;;13.46;56.50;99984.28;5031096;28;20892;-58
2023/01/13 04:00:25;;;;;;;17.37;3.33;;;11.00;80.40;;;13.39;56.39;99983.50;5018062;28;20216;-56
2023/01/13 04:02:59;;;;;;;16.20;4.13;;;10.90;80.00;;;13.38;56.58;99981.88;5032640;28;20202;-55
2023/01/13 04:05:29;;;;;;;14.57;4.97;;;10.90;80.00;;;13.33;55.99;99983.53;5031343;28;20189;-51
2023/01/13 04:08:11;;;;;;;12.27;4.10;;;10.90;79.30;;;13.25;56.38;99971.38;5026330;28;20215;-56
2023/01/13 04:10:46;;;;;;;11.13;3.93;;;10.90;79.50;;;13.28;56.07;99992.09;5012831;28;20202;-53
2023/01/13 04:13:20;;;;;;;14.67;3.90;;;10.90;79.50;;;13.28;56.00;99992.09;5015443;28;20585;-55
2023/01/13 04:15:49;;;;;;;14.47;3.43;;;10.90;79.20;;;13.32;56.13;99993.31;5015095;28;20556;-53
2023/01/13 04:18:20;;;;;;;14.40;4.60;;;10.90;79.40;;;13.40;56.02;99990.44;5027956;28;20633;-54
2023/01/13 04:20:51;;;;;;;12.67;4.63;;;10.80;79.70;;;13.45;55.75;99993.22;5031001;28;20277;-56
2023/01/13 04:23:20;;;;;;;13.73;4.10;;;10.90;79.50;;;13.44;55.68;99983.69;5020538;28;20520;-55
2023/01/13 04:25:48;;;;;;;15.40;4.40;;;10.90;79.10;;;13.45;55.68;100001.16;5034392;28;20186;-56
2023/01/13 04:28:17;;;;;;;11.43;3.90;;;11.00;79.10;;;13.49;55.77;99994.44;5032580;28;20221;-56
2023/01/13 04:30:44;;;;;;;15.87;4.30;;;10.90;79.20;;;13.54;55.70;99991.16;5031174;28;20651;-54
2023/01/13 04:33:14;;;;;;;16.53;4.70;;;10.90;79.40;;;13.52;55.44;99978.16;5034004;28;20191;-52
2023/01/13 04:35:43;;;;;;;15.40;4.03;;;11.00;79.10;;;13.54;55.02;99978.75;5033959;28;20214;-55
2023/01/13 04:38:13;;;;;;;14.90;4.07;;;10.90;78.80;;;13.46;55.37;99973.72;5027476;28;20299;-55
2023/01/13 04:40:41;;;;;;;15.13;4.20;;;11.00;78.70;;;13.52;55.21;99961.47;5017664;28;20560;-54
2023/01/13 04:43:10;;;;;;;20.57;4.10;;;11.00;78.70;;;13.31;55.31;99957.31;5034243;28;20193;-55
2023/01/13 04:45:37;;;;;;;15.47;3.70;;;10.90;78.20;;;13.32;55.54;99961.59;5033893;28;20197;-56
2023/01/13 04:48:05;;;;;;;17.10;4.27;;;11.00;78.30;;;13.39;55.52;99962.34;5026682;28;20211;-54
2023/01/13 04:50:32;;;;;;;15.50;4.63;;;11.00;79.30;;;13.46;55.38;99957.03;5033471;28;20667;-54
2023/01/13 04:53:00;;;;;;;18.23;4.47;;;11.00;78.60;;;13.47;55.32;99963.94;5046611;28;20767;-54
2023/01/13 04:55:28;;;;;;;14.60;4.50;;;11.00;78.50;;;13.45;55.05;99963.34;5017409;28;20214;-54
2023/01/13 04:58:02;;;;;;;12.93;4.27;;;11.00;78.10;;;13.28;55.21;99949.81;5030229;28;20215;-54
2023/01/13 05:00:29;;;;;;;13.97;4.20;;;10.90;77.70;;;13.15;55.41;99939.31;5014359;28;20918;-55
2023/01/13 05:02:56;;;;;;;17.67;4.47;;;10.90;77.60;;;13.08;55.34;99943.81;5014484;28;20196;-52
2023/01/13 05:05:23;;;;;;;15.27;4.20;;;10.80;77.30;;;13.10;55.56;99941.75;5014287;28;20560;-53
2023/01/13 05:07:50;;;;;;;13.83;3.97;;;10.90;77.70;;;13.12;55.54;99939.72;5020983;28;20697;-54
2023/01/13 05:10:17;;;;;;;17.53;4.77;;;10.80;77.70;;;13.17;55.65;99942.53;5013682;28;20219;-53
2023/01/13 05:18:18;;;;;;;14.83;4.30;;;10.80;78.20;;;13.20;55.70;99941.31;5020447;28;20404;-58
2023/01/13 05:20:45;;;;;;;20.33;4.83;;;10.80;78.40;;;13.22;55.50;99934.78;5033803;28;20194;-57
2023/01/13 05:25:57;;;;;;;10.77;3.47;;;10.70;78.30;;;13.24;55.65;99943.31;5033500;28;20616;-54
2023/01/13 05:28:31;;;;;;;14.63;4.67;;;10.80;78.60;;;13.26;55.29;99936.03;5027216;28;20268;-54
2023/01/13 05:30:58;;;;;;;17.43;4.63;;;10.70;78.50;;;13.20;55.39;99936.03;5013407;28;20559;-56
2023/01/13 05:33:25;;;;;;;17.63;5.47;;;10.70;78.30;;;13.15;55.43;99941.94;5014033;28;20199;-54
2023/01/13 05:35:52;;;;;;;14.70;4.77;;;10.70;78.30;;;13.25;55.54;99934.38;5013028;28;20643;-52
2023/01/13 05:38:19;;;;;;;12.60;3.83;;;10.80;78.50;;;13.35;55.42;99939.22;5020166;28;20234;-56
2023/01/13 05:43:33;;;;;;;17.53;4.50;;;10.80;78.60;;;13.37;54.86;99937.97;5044709;28;20198;-57
2023/01/13 05:46:04;;;;;;;15.77;4.93;;;10.80;78.20;;;13.24;54.86;99932.75;5042712;28;20214;-56
2023/01/13 05:48:34;;;;;;;12.93;3.93;;;10.80;77.80;;;13.21;55.27;99927.91;5034251;28;20272;-54
2023/01/13 05:51:03;;;;;;;14.73;4.40;;;10.80;77.90;;;13.31;55.35;99930.09;5039823;28;20198;-63
2023/01/13 05:53:31;;;;;;;13.33;3.90;;;10.80;78.20;;;13.41;54.98;99943.63;5039977;28;20194;-58
2023/01/13 05:55:59;;;;;;;12.57;4.27;;;10.80;78.20;;;13.40;55.16;99937.56;5040074;28;20698;-58
2023/01/13 05:58:27;;;;;;;14.77;3.33;;;10.80;78.10;;;13.48;55.10;99939.94;5029099;28;20644;-58
2023/01/13 06:01:01;;;;;;;16.57;3.73;;;10.90;78.40;;;13.56;54.66;99936.22;5025819;28;20205;-58
2023/01/13 06:03:28;;;;;;;12.43;4.17;;;10.90;78.40;;;13.62;54.46;99935.38;5025331;28;20198;-58
2023/01/13 06:06:00;;;;;;;14.67;4.60;;;10.90;78.20;;;13.66;54.42;99936.56;5024305;28;20623;-58
2023/01/13 06:08:28;;;;;;;15.57;4.67;;;11.00;78.00;;;13.73;54.60;99921.47;5033674;28;20238;-56
2023/01/13 06:10:55;;;;;;;15.17;3.80;;;11.00;78.10;;;13.81;54.48;99933.63;5024029;28;20187;-57
2023/01/13 06:13:24;;;;;;;17.93;4.33;;;11.10;78.20;;;13.86;54.31;99931.16;5023394;28;20234;-56
2023/01/13 06:15:54;;;;;;;17.50;4.87;;;11.00;78.10;;;13.88;53.77;99934.38;5036105;28;20222;-57
2023/01/13 06:18:23;;;;;;;17.47;4.60;;;11.10;77.90;;;13.90;54.18;99933.16;5036345;28;20249;-57
2023/01/13 06:20:50;;;;;;;14.37;4.17;;;11.10;77.80;;;13.87;53.64;99927.47;5042350;28;20197;-57
2023/01/13 06:23:16;;;;;;;15.63;4.83;;;11.10;77.30;;;13.84;53.89;99933.16;5035570;28;20202;-58
2023/01/13 06:25:52;;;;;;;14.73;5.03;;;11.10;77.00;;;13.83;53.73;99931.56;5034968;28;20206;-57
2023/01/13 06:28:19;;;;;;;12.83;4.70;;;11.20;76.90;;;13.88;53.84;99934.38;5030985;28;20214;-56
2023/01/13 06:30:50;;;;;;;15.30;4.10;;;11.20;77.00;;;13.94;53.80;99936.16;5022770;28;20544;-55
2023/01/13 06:33:25;;;;;;;17.90;4.37;;;11.20;77.10;;;13.98;53.67;99924.09;5023669;28;20316;-56
2023/01/13 06:35:59;;;;;;;16.10;4.67;;;11.20;77.00;;;13.96;53.41;99926.16;5023003;28;20222;-56
2023/01/13 06:38:32;;;;;;;17.90;4.60;;;11.30;76.80;;;13.93;53.37;99922.09;5037223;28;20550;-57
2023/01/13 06:40:59;;;;;;;19.40;5.20;;;11.30;76.60;;;13.91;53.54;99924.16;5039751;28;20183;-57
2023/01/13 06:43:26;;;;;;;15.17;4.40;;;11.30;76.60;;;13.93;53.24;99921.31;5043567;28;20205;-56
2023/01/13 06:45:55;;;;;;;16.30;4.87;;;11.20;76.00;;;13.84;52.94;99927.88;5042901;28;20194;-57
2023/01/13 06:48:27;;;;;;;12.10;3.83;;;11.20;75.80;;;13.87;53.43;99927.47;5043805;28;20210;-58
2023/01/13 06:50:54;;;;;;;10.07;4.10;;;11.20;76.00;;;13.90;53.23;99934.97;5043511;28;20604;-56
2023/01/13 06:53:21;;;;;;;16.97;4.50;;;11.20;76.20;;;13.91;52.95;99934.75;5026735;28;20188;-59
2023/01/13 06:55:48;;;;;;;13.37;4.50;;;11.20;76.00;;;13.92;53.08;99951.44;5023021;28;20246;-57
2023/01/13 06:58:15;;;;;;;16.93;4.67;;;11.20;75.80;;;13.88;52.80;99935.16;5030200;28;20215;-57
2023/01/13 07:00:43;;;;;;;15.23;5.00;;;11.20;75.60;;;13.82;52.63;99933.41;5020528;28;20191;-56
2023/01/13 07:03:12;;;;;;;16.10;4.77;;;11.20;75.30;;;13.78;52.69;99936.69;5020646;28;20195;-57
2023/01/13 07:05:49;;;;;;;12.60;3.97;;;11.10;75.00;;;13.77;52.46;99943.00;5021211;28;20197;-57
2023/01/13 07:08:16;;;;;;;14.07;4.37;;;11.10;75.20;;;13.64;52.49;99948.38;5031942;28;20225;-57
2023/01/13 07:10:44;;;;;;;12.33;4.17;;;11.10;74.50;;;13.65;52.73;99950.00;5023824;28;20192;-55
2023/01/13 07:16:00;;;;;;;14.33;4.70;;;11.10;75.00;;;13.61;52.56;99943.53;5022742;28;20206;-55
2023/01/13 07:18:30;;;;;;;12.67;3.70;;;11.10;75.00;;;13.48;52.46;99947.06;5033774;28;20218;-57
2023/01/13 07:21:01;;;;;;;11.03;4.57;;;11.00;74.70;;;13.42;52.96;99948.72;5041286;28;20270;-58
2023/01/13 07:23:31;;;;;;;19.23;4.77;;;11.00;75.00;;;13.42;53.13;99951.38;5040414;28;20191;-57
2023/01/13 07:25:59;;;;;;;16.27;3.80;;;11.00;75.10;;;13.45;53.03;99936.91;5041465;28;20183;-56
2023/01/13 07:28:28;;;;;;;14.67;4.63;;;11.00;75.10;;;13.43;52.91;99950.34;5028679;28;20690;-57
2023/01/13 07:30:56;;;;;;;7.77;3.00;;;10.90;75.00;;;13.44;53.18;99938.75;5035706;28;20713;-57
2023/01/13 07:33:24;;;;;;;17.90;4.70;;;10.90;75.40;;;13.40;52.82;99937.56;5037932;28;20191;-57
2023/01/13 07:35:56;;;;;;;20.40;4.40;;;10.90;75.20;;;13.36;53.35;99930.28;5036695;28;20230;-57
2023/01/13 07:38:25;;;;;;;18.00;5.03;;;10.90;75.50;;;13.18;53.33;99933.59;5018488;28;20219;-57
2023/01/13 07:40:53;;;;;;;13.20;4.23;;;10.80;75.00;;;13.18;53.79;99938.91;5016925;28;20207;-55
2023/01/13 07:43:32;;;;;;;16.40;4.20;;;10.80;75.20;;;13.16;53.58;99945.41;5035288;28;20199;-55
2023/01/13 07:46:03;;;;;;;14.13;4.10;;;10.80;75.30;;;13.13;53.54;99951.91;5038391;28;20313;-63
2023/01/13 07:48:33;;;;;;;17.87;3.93;;;10.80;75.30;;;13.08;53.75;99954.38;5029953;28;20293;-57
2023/01/13 07:51:02;;;;;;;18.20;3.87;;;10.70;75.30;;;12.99;54.11;99947.69;5035497;28;20194;-57
2023/01/13 07:53:30;;;;;;;11.33;3.93;;;10.70;75.40;;;13.04;53.90;99939.94;5019295;28;20198;-58
2023/01/13 07:55:59;;;;;;;11.67;3.50;;;10.70;75.60;;;13.13;53.85;99944.00;5018026;28;20218;-57
2023/01/13 07:58:27;;;;;;;11.63;3.10;;;10.70;75.80;;;13.20;53.68;99947.41;5026257;28;20219;-57
2023/01/13 08:00:55;;;;;;;18.23;3.50;;;10.70;75.70;;;13.29;53.39;99950.63;5035224;28;20225;-54
2023/01/13 08:03:23;;;;;;;11.33;4.37;;;10.70;75.70;;;13.24;53.16;99948.59;5017702;28;20668;-55
2023/01/13 08:05:50;;;;;;;13.77;3.80;;;10.70;75.30;;;13.16;53.44;99951.50;5015652;28;20664;-54
2023/01/13 08:08:18;;;;;;;8.47;2.90;;;10.70;75.00;;;13.22;53.22;99950.66;5022198;28;20211;-56
2023/01/13 08:10:46;;;;;;;13.07;3.30;;;10.80;75.00;;;13.24;53.15;99953.09;5018412;28;20207;-55
2023/01/13 08:13:16;;;;;;;7.10;2.50;;;10.80;74.90;;;13.31;53.03;99948.59;5028135;28;20234;-54
2023/01/13 08:15:44;;;;;;;8.00;2.93;;;10.70;74.80;;;13.19;52.35;99982.78;5034338;28;20304;-54
2023/01/13 08:18:13;;;;;;;10.10;2.73;;;10.70;73.60;;;13.22;52.67;99955.94;5032118;28;20673;-56
2023/01/13 08:20:40;;;;;;;8.13;3.23;;;10.70;73.80;;;13.33;52.36;99957.94;5033942;28;20200;-53
2023/01/13 08:23:07;;;;;;;10.23;3.80;;;10.80;73.90;;;13.38;52.06;99960.72;5024278;28;20260;-55
2023/01/13 08:25:34;;;;;;;8.03;2.50;;;10.80;73.70;;;13.41;51.94;99955.03;5033335;28;20203;-53
2023/01/13 08:28:03;;;;;;;12.17;3.37;;;10.90;73.90;;;13.42;51.70;99967.22;5020233;28;20269;-55
2023/01/13 08:30:30;;;;;;;12.60;3.07;;;10.90;73.20;;;13.37;51.37;99959.13;5029183;28;20214;-54
2023/01/13 08:32:57;;;;;;;9.23;2.90;;;10.90;72.60;;;13.34;51.58;99967.47;5023290;28;20565;-54
2023/01/13 08:35:24;;;;;;;9.43;2.07;;;10.90;72.60;;;13.42;51.51;99967.22;5023303;28;20253;-55
2023/01/13 08:37:51;;;;;;;7.00;2.13;;;10.90;72.70;;;13.40;51.18;99968.47;5021246;28;20532;-56
2023/01/13 08:40:19;;;;;;;12.50;2.80;;;10.90;72.20;;;13.49;51.14;99977.75;5015720;28;20195;-53
2023/01/13 08:42:47;;;;;;;9.83;2.83;;;10.90;72.20;;;13.33;50.97;99955.28;5024809;28;20198;-54
2023/01/13 08:45:16;;;;;;;6.37;2.30;;;10.90;71.80;;;13.30;51.34;99968.91;5033448;28;20278;-57
2023/01/13 08:47:43;;;;;;;10.57;2.70;;;10.90;71.90;;;13.33;51.36;99971.16;5025603;28;20691;-56
2023/01/13 08:50:10;;;;;;;10.30;2.97;;;11.00;72.00;;;13.35;51.20;99963.81;5033546;28;20217;-55
2023/01/13 08:52:37;;;;;;;9.40;3.07;;;11.00;71.70;;;13.52;51.07;99972.88;5030895;28;20186;-57
2023/01/13 08:55:06;;;;;;;9.27;3.10;;;11.00;71.90;;;13.56;50.57;99966.13;5021733;28;20208;-56
2023/01/13 08:57:34;;;;;;;10.03;2.30;;;11.00;71.50;;;13.75;50.54;99960.91;5023229;28;20221;-55
2023/01/13 09:00:03;;;;;;;13.00;4.43;;;11.10;71.90;;;13.81;50.40;99973.31;5028359;28;20259;-56
2023/01/13 09:02:32;;;;;;;10.87;5.43;;;11.10;71.60;;;13.80;50.02;99967.19;5021003;28;20301;-57
2023/01/13 09:05:02;;;;;;;10.07;4.23;;;11.20;71.10;;;13.89;50.17;99975.66;5025032;28;20226;-54
2023/01/13 09:07:30;;;;;;;9.23;4.60;;;11.20;71.20;;;13.98;50.00;99969.91;5017611;28;20211;-56
2023/01/13 09:09:57;;;;;;;14.80;8.73;;;11.30;71.30;;;13.97;49.44;99960.34;5032266;28;20225;-54
2023/01/13 09:15:11;;;;;;;8.83;2.70;;;11.30;70.80;;;13.92;49.46;99968.13;5018839;28;20283;-54
2023/01/13 09:17:39;;;;;;;5.57;2.27;;;11.30;70.30;;;13.90;49.70;99972.00;5043365;28;20218;-53
2023/01/13 09:20:08;;;;;;;9.83;2.60;;;11.40;70.40;;;13.96;49.75;99966.66;5026769;28;20382;-54
2023/01/13 09:22:37;;;;;;;8.30;1.93;;;11.40;70.70;;;14.03;49.66;99974.53;5028827;28;20210;-57
2023/01/13 09:25:05;;;;;;;6.40;2.47;;;11.40;70.70;;;14.06;49.59;99963.53;5028388;28;20205;-56
2023/01/13 09:27:32;;;;;;;9.60;2.40;;;11.40;71.40;;;13.99;49.35;99968.06;5024593;28;20216;-53
2023/01/13 09:30:00;;;;;;;7.43;3.07;;;11.40;70.40;;;14.00;49.51;99959.13;5028020;28;20292;-57
2023/01/13 09:32:28;;;;;;;9.77;2.67;;;11.40;70.40;;;13.93;49.26;99961.00;5035570;28;20198;-53
2023/01/13 09:34:58;;;;;;;6.47;2.60;;;11.30;70.00;;;13.93;49.89;99959.16;5025767;28;20207;-56
2023/01/13 09:37:28;;;;;;;9.10;2.27;;;11.40;70.40;;;14.03;49.83;99966.59;5030931;28;20341;-56
2023/01/13 09:39:55;;;;;;;8.53;3.20;;;11.40;70.40;;;14.07;49.45;99957.22;5023041;28;20220;-54
2023/01/13 09:45:24;;;;;;;12.30;2.80;;;11.40;70.10;;;13.89;49.69;99973.03;5015931;28;20210;-55
2023/01/13 09:48:00;;;;;;;12.23;2.87;;;11.40;70.20;;;13.94;49.65;99975.84;5006698;28;20268;-54
2023/01/13 09:50:43;;;;;;;8.97;2.77;;;11.40;70.20;;;14.00;49.66;99975.00;5026588;28;20207;-54
2023/01/13 09:53:21;;;;;;;7.30;2.50;;;11.40;70.20;;;13.93;49.71;99977.66;5024935;28;20202;-57
2023/01/13 09:55:48;;;;;;;8.07;2.77;;;11.40;70.10;;;14.04;49.54;99976.16;5025003;28;20215;-57
2023/01/13 09:58:18;;;;;;;8.33;2.30;;;11.40;70.20;;;14.07;49.26;99970.47;5022898;28;20265;-56
2023/01/13 10:01:04;;;;;;;18.67;3.37;;;11.40;70.10;;;14.13;49.55;99969.59;5029880;28;20194;-55
2023/01/13 10:03:34;;;;;;;9.40;2.97;;;11.50;70.50;;;14.19;49.25;99974.03;5025579;28;20214;-54
2023/01/13 10:06:12;;;;;;;16.37;3.33;;;11.50;70.30;;;14.05;49.42;99968.00;5029795;28;20191;-58
2023/01/13 10:08:42;;;;;;;7.83;2.53;;;11.40;69.80;;;14.11;49.32;99967.16;5026030;28;20213;-55
2023/01/13 10:14:09;;;;;;;9.33;2.70;;;11.50;70.20;;;14.18;49.48;99975.03;5023479;28;20195;-57
2023/01/13 10:16:45;;;;;;;12.37;3.00;;;11.60;70.20;;;14.19;49.32;99966.09;5030016;28;20230;-56
2023/01/13 10:19:21;;;;;;;6.47;2.70;;;11.60;70.20;;;14.27;49.29;99971.09;5027479;28;20238;-53
2023/01/13 10:22:21;;;;;;;10.80;3.43;;;11.60;70.30;;;14.25;49.17;99978.44;5024640;28;20226;-55
2023/01/13 10:25:20;;;;;;;8.17;3.07;;;11.60;70.30;;;14.33;49.67;99974.75;5022843;28;20205;-54
2023/01/13 10:27:53;;;;;;;7.27;2.90;;;11.70;71.50;;;14.35;49.71;99999.97;5030263;28;20297;-56
2023/01/13 10:30:30;;;;;;;14.83;3.17;;;11.70;71.70;;;14.23;51.06;100014.91;5017752;28;20199;-55
2023/01/13 10:32:59;;;;;;;14.27;3.60;;;11.60;73.40;;;14.10;51.93;100022.94;5018787;28;20187;-56
2023/01/13 10:35:57;;;;;;;11.23;3.10;;;11.60;74.20;;;13.92;52.98;100031.63;5031903;28;20306;-53
2023/01/13 10:38:34;;;;;;;12.27;2.70;;;11.50;75.50;;;13.82;54.00;100033.09;5033090;28;20203;-55
2023/01/13 10:41:05;;;;;;;8.53;3.00;;;11.40;77.00;;;13.70;54.56;100037.44;5033157;28;20283;-56
2023/01/13 10:43:32;;;;;;;15.37;3.17;;;11.30;77.50;;;13.57;55.33;100028.53;5024494;28;20203;-55
2023/01/13 10:46:04;;;;;;;9.37;2.77;;;11.20;78.30;;;13.46;55.52;100026.56;5031713;28;20194;-54
2023/01/13 10:48:37;;;;;;;11.80;3.37;;;11.10;78.60;;;13.40;55.87;100021.34;5026484;28;20223;-55
2023/01/13 10:51:23;;;;;;;5.60;2.70;;;11.00;79.20;;;13.38;56.27;100018.88;5023870;28;20203;-56
2023/01/13 10:53:56;;;;;;;9.37;3.00;;;10.90;79.50;;;13.41;56.14;100018.47;5028331;28;20191;-55
2023/01/13 10:56:27;;;;;;;9.87;3.07;;;10.90;79.80;;;13.46;56.20;100005.44;5029111;28;20253;-56
2023/01/13 10:59:13;;;;;;;7.13;2.63;;;10.90;79.90;;;13.43;56.20;100015.63;5029958;28;20242;-53
2023/01/13 11:01:42;;;;;;;9.43;3.70;;;10.90;80.00;;;13.50;56.24;100017.19;5023400;28;20196;-56
2023/01/13 11:04:29;;;;;;;8.60;2.63;;;10.90;79.70;;;13.56;55.73;100010.25;5021081;28;20214;-56